sensor_id;sensor_type;location;lat;lon;timestamp;P1;durP1;ratioP1;P2;durP2;ratioP2
52266;SDS011;38223;50.940;4.034;2023-02-04T00:01:11;12.50;;;9.10;;
52266;SDS011;38223;50.940;4.034;2023-02-04T00:03:40;12.00;;;9.03;;
52266;SDS011;38223;50.940;4.034;2023-02-04T00:06:11;13.98;;;8.78;;
52266;SDS011;38223;50.940;4.034;2023-02-04T00:08:39;13.43;;;8.15;;
52266;SDS011;38223;50.940;4.034;2023-02-04T00:11:09;13.88;;;8.48;;
52266;SDS011;38223;50.940;4.034;2023-02-04T00:13:43;13.10;;;9.28;;
52266;SDS011;38223;50.940;4.034;2023-02-04T00:16:14;15.13;;;8.85;;
52266;SDS011;38223;50.940;4.034;2023-02-04T00:18:49;10.93;;;8.45;;
52266;SDS011;38223;50.940;4.034;2023-02-04T00:21:18;15.15;;;8.50;;
52266;SDS011;38223;50.940;4.034;2023-02-04T00:23:51;9.30;;;7.65;;
52266;SDS011;38223;50.940;4.034;2023-02-04T00:26:22;11.93;;;8.60;;
52266;SDS011;38223;50.940;4.034;2023-02-04T00:28:50;16.15;;;8.65;;
52266;SDS011;38223;50.940;4.034;2023-02-04T00:31:17;20.23;;;9.38;;
52266;SDS011;38223;50.940;4.034;2023-02-04T00:33:48;13.85;;;8.98;;
52266;SDS011;38223;50.940;4.034;2023-02-04T00:36:18;15.15;;;9.50;;
52266;SDS011;38223;50.940;4.034;2023-02-04T00:38:49;13.28;;;9.75;;
52266;SDS011;38223;50.940;4.034;2023-02-04T00:41:22;14.35;;;9.93;;
52266;SDS011;38223;50.940;4.034;2023-02-04T00:43:54;13.05;;;10.05;;
52266;SDS011;38223;50.940;4.034;2023-02-04T00:46:28;20.23;;;9.78;;
52266;SDS011;38223;50.940;4.034;2023-02-04T00:48:58;13.43;;;11.10;;
52266;SDS011;38223;50.940;4.034;2023-02-04T00:51:29;16.67;;;11.00;;
52266;SDS011;38223;50.940;4.034;2023-02-04T00:54:02;15.38;;;11.57;;
52266;SDS011;38223;50.940;4.034;2023-02-04T00:56:30;17.40;;;11.68;;
52266;SDS011;38223;50.940;4.034;2023-02-04T00:58:59;20.32;;;13.08;;
52266;SDS011;38223;50.940;4.034;2023-02-04T01:01:28;17.73;;;13.27;;
52266;SDS011;38223;50.940;4.034;2023-02-04T01:03:57;20.40;;;13.62;;
52266;SDS011;38223;50.940;4.034;2023-02-04T01:06:25;20.72;;;13.03;;
52266;SDS011;38223;50.940;4.034;2023-02-04T01:08:55;19.37;;;13.03;;
52266;SDS011;38223;50.940;4.034;2023-02-04T01:11:23;19.30;;;13.70;;
52266;SDS011;38223;50.940;4.034;2023-02-04T01:16:23;18.32;;;13.68;;
52266;SDS011;38223;50.940;4.034;2023-02-04T01:18:56;21.25;;;14.30;;
52266;SDS011;38223;50.940;4.034;2023-02-04T01:21:25;20.10;;;14.45;;
52266;SDS011;38223;50.940;4.034;2023-02-04T01:23:52;24.45;;;14.78;;
52266;SDS011;38223;50.940;4.034;2023-02-04T01:26:32;20.68;;;14.80;;
52266;SDS011;38223;50.940;4.034;2023-02-04T01:29:07;23.18;;;14.47;;
52266;SDS011;38223;50.940;4.034;2023-02-04T01:31:39;20.70;;;14.05;;
52266;SDS011;38223;50.940;4.034;2023-02-04T01:34:13;22.52;;;15.40;;
52266;SDS011;38223;50.940;4.034;2023-02-04T01:36:40;24.77;;;14.43;;
52266;SDS011;38223;50.940;4.034;2023-02-04T01:39:08;22.13;;;14.33;;
52266;SDS011;38223;50.940;4.034;2023-02-04T01:41:40;17.82;;;14.05;;
52266;SDS011;38223;50.940;4.034;2023-02-04T01:44:12;19.25;;;14.45;;
52266;SDS011;38223;50.940;4.034;2023-02-04T01:46:45;19.17;;;14.58;;
52266;SDS011;38223;50.940;4.034;2023-02-04T01:49:17;28.20;;;16.10;;
52266;SDS011;38223;50.940;4.034;2023-02-04T01:51:49;26.33;;;15.28;;
52266;SDS011;38223;50.940;4.034;2023-02-04T01:54:16;21.40;;;14.93;;
52266;SDS011;38223;50.940;4.034;2023-02-04T01:56:46;19.55;;;15.10;;
52266;SDS011;38223;50.940;4.034;2023-02-04T01:59:16;22.87;;;15.28;;
52266;SDS011;38223;50.940;4.034;2023-02-04T02:01:46;24.75;;;15.75;;
52266;SDS011;38223;50.940;4.034;2023-02-04T02:04:17;22.45;;;14.07;;
52266;SDS011;38223;50.940;4.034;2023-02-04T02:06:56;19.82;;;14.65;;
52266;SDS011;38223;50.940;4.034;2023-02-04T02:09:26;21.12;;;14.55;;
52266;SDS011;38223;50.940;4.034;2023-02-04T02:11:56;24.07;;;12.98;;
52266;SDS011;38223;50.940;4.034;2023-02-04T02:14:29;25.80;;;13.05;;
52266;SDS011;38223;50.940;4.034;2023-02-04T02:16:58;18.25;;;12.80;;
52266;SDS011;38223;50.940;4.034;2023-02-04T02:19:31;17.12;;;11.53;;
52266;SDS011;38223;50.940;4.034;2023-02-04T02:22:05;22.30;;;12.43;;
52266;SDS011;38223;50.940;4.034;2023-02-04T02:24:31;14.53;;;11.65;;
52266;SDS011;38223;50.940;4.034;2023-02-04T02:27:01;18.98;;;12.75;;
52266;SDS011;38223;50.940;4.034;2023-02-04T02:29:33;26.75;;;13.32;;
52266;SDS011;38223;50.940;4.034;2023-02-04T02:32:10;22.73;;;13.22;;
52266;SDS011;38223;50.940;4.034;2023-02-04T02:34:43;19.07;;;12.70;;
52266;SDS011;38223;50.940;4.034;2023-02-04T02:37:16;23.57;;;14.00;;
52266;SDS011;38223;50.940;4.034;2023-02-04T02:39:48;24.57;;;14.20;;
52266;SDS011;38223;50.940;4.034;2023-02-04T02:42:22;19.95;;;15.23;;
52266;SDS011;38223;50.940;4.034;2023-02-04T02:44:53;22.00;;;14.75;;
52266;SDS011;38223;50.940;4.034;2023-02-04T02:47:31;23.00;;;15.25;;
52266;SDS011;38223;50.940;4.034;2023-02-04T02:50:04;17.50;;;14.47;;
52266;SDS011;38223;50.940;4.034;2023-02-04T02:52:38;23.22;;;16.90;;
52266;SDS011;38223;50.940;4.034;2023-02-04T02:55:16;22.55;;;16.60;;
52266;SDS011;38223;50.940;4.034;2023-02-04T02:57:51;26.42;;;16.67;;
52266;SDS011;38223;50.940;4.034;2023-02-04T03:00:25;25.48;;;17.57;;
52266;SDS011;38223;50.940;4.034;2023-02-04T03:03:06;25.92;;;18.02;;
52266;SDS011;38223;50.940;4.034;2023-02-04T03:05:40;22.30;;;17.45;;
52266;SDS011;38223;50.940;4.034;2023-02-04T03:08:10;20.82;;;17.32;;
52266;SDS011;38223;50.940;4.034;2023-02-04T03:10:47;20.52;;;17.30;;
52266;SDS011;38223;50.940;4.034;2023-02-04T03:13:16;24.20;;;17.75;;
52266;SDS011;38223;50.940;4.034;2023-02-04T03:15:50;20.85;;;18.30;;
52266;SDS011;38223;50.940;4.034;2023-02-04T03:18:25;25.55;;;18.27;;
52266;SDS011;38223;50.940;4.034;2023-02-04T03:20:56;24.02;;;19.62;;
52266;SDS011;38223;50.940;4.034;2023-02-04T03:23:29;28.20;;;19.45;;
52266;SDS011;38223;50.940;4.034;2023-02-04T03:26:04;22.95;;;19.30;;
52266;SDS011;38223;50.940;4.034;2023-02-04T03:28:38;23.32;;;19.00;;
52266;SDS011;38223;50.940;4.034;2023-02-04T03:31:13;26.07;;;20.72;;
52266;SDS011;38223;50.940;4.034;2023-02-04T03:33:43;32.35;;;21.23;;
52266;SDS011;38223;50.940;4.034;2023-02-04T03:36:17;29.10;;;22.87;;
52266;SDS011;38223;50.940;4.034;2023-02-04T03:38:48;36.88;;;23.60;;
52266;SDS011;38223;50.940;4.034;2023-02-04T03:41:20;30.75;;;23.70;;
52266;SDS011;38223;50.940;4.034;2023-02-04T03:43:50;33.30;;;24.25;;
52266;SDS011;38223;50.940;4.034;2023-02-04T03:46:22;30.08;;;23.60;;
52266;SDS011;38223;50.940;4.034;2023-02-04T03:48:53;29.40;;;24.23;;
52266;SDS011;38223;50.940;4.034;2023-02-04T03:51:28;33.00;;;22.90;;
52266;SDS011;38223;50.940;4.034;2023-02-04T03:53:59;30.70;;;22.35;;
52266;SDS011;38223;50.940;4.034;2023-02-04T03:56:33;28.70;;;21.65;;
52266;SDS011;38223;50.940;4.034;2023-02-04T03:59:05;26.12;;;20.62;;
52266;SDS011;38223;50.940;4.034;2023-02-04T04:01:39;24.80;;;20.95;;
52266;SDS011;38223;50.940;4.034;2023-02-04T04:04:09;25.30;;;20.08;;
52266;SDS011;38223;50.940;4.034;2023-02-04T04:06:43;22.45;;;19.95;;
52266;SDS011;38223;50.940;4.034;2023-02-04T04:09:13;23.35;;;20.27;;
52266;SDS011;38223;50.940;4.034;2023-02-04T04:11:48;25.85;;;21.07;;
52266;SDS011;38223;50.940;4.034;2023-02-04T04:14:18;24.00;;;20.55;;
52266;SDS011;38223;50.940;4.034;2023-02-04T04:16:51;23.95;;;20.77;;
52266;SDS011;38223;50.940;4.034;2023-02-04T04:19:25;28.77;;;21.15;;
52266;SDS011;38223;50.940;4.034;2023-02-04T04:21:57;28.02;;;22.80;;
52266;SDS011;38223;50.940;4.034;2023-02-04T04:24:27;26.65;;;22.73;;
52266;SDS011;38223;50.940;4.034;2023-02-04T04:27:02;28.02;;;23.22;;
52266;SDS011;38223;50.940;4.034;2023-02-04T04:29:34;30.70;;;24.50;;
52266;SDS011;38223;50.940;4.034;2023-02-04T04:32:07;29.37;;;24.07;;
52266;SDS011;38223;50.940;4.034;2023-02-04T04:34:38;28.32;;;22.40;;
52266;SDS011;38223;50.940;4.034;2023-02-04T04:37:13;29.20;;;23.22;;
52266;SDS011;38223;50.940;4.034;2023-02-04T04:39:46;29.02;;;23.00;;
52266;SDS011;38223;50.940;4.034;2023-02-04T04:42:17;33.10;;;21.42;;
52266;SDS011;38223;50.940;4.034;2023-02-04T04:44:49;30.82;;;21.50;;
52266;SDS011;38223;50.940;4.034;2023-02-04T04:47:20;26.97;;;19.82;;
52266;SDS011;38223;50.940;4.034;2023-02-04T04:49:55;33.25;;;21.93;;
52266;SDS011;38223;50.940;4.034;2023-02-04T04:52:28;28.65;;;20.15;;
52266;SDS011;38223;50.940;4.034;2023-02-04T04:55:02;27.67;;;21.05;;
52266;SDS011;38223;50.940;4.034;2023-02-04T04:57:33;33.00;;;22.32;;
52266;SDS011;38223;50.940;4.034;2023-02-04T05:00:07;37.83;;;22.85;;
52266;SDS011;38223;50.940;4.034;2023-02-04T05:02:39;35.40;;;23.52;;
52266;SDS011;38223;50.940;4.034;2023-02-04T05:05:13;36.23;;;24.70;;
52266;SDS011;38223;50.940;4.034;2023-02-04T05:07:45;36.17;;;24.57;;
52266;SDS011;38223;50.940;4.034;2023-02-04T05:10:18;34.63;;;23.92;;
52266;SDS011;38223;50.940;4.034;2023-02-04T05:12:51;38.35;;;25.43;;
52266;SDS011;38223;50.940;4.034;2023-02-04T05:15:26;34.58;;;24.55;;
52266;SDS011;38223;50.940;4.034;2023-02-04T05:17:59;42.48;;;26.20;;
52266;SDS011;38223;50.940;4.034;2023-02-04T05:20:36;46.23;;;26.12;;
52266;SDS011;38223;50.940;4.034;2023-02-04T05:23:07;40.75;;;26.65;;
52266;SDS011;38223;50.940;4.034;2023-02-04T05:25:39;43.33;;;26.42;;
52266;SDS011;38223;50.940;4.034;2023-02-04T05:28:10;42.40;;;25.97;;
52266;SDS011;38223;50.940;4.034;2023-02-04T05:30:43;44.77;;;26.42;;
52266;SDS011;38223;50.940;4.034;2023-02-04T05:33:12;43.63;;;26.17;;
52266;SDS011;38223;50.940;4.034;2023-02-04T05:38:14;44.95;;;26.95;;
52266;SDS011;38223;50.940;4.034;2023-02-04T05:40:47;50.40;;;27.17;;
52266;SDS011;38223;50.940;4.034;2023-02-04T05:43:16;42.33;;;25.45;;
52266;SDS011;38223;50.940;4.034;2023-02-04T05:45:49;44.05;;;27.17;;
52266;SDS011;38223;50.940;4.034;2023-02-04T05:48:21;45.23;;;26.35;;
52266;SDS011;38223;50.940;4.034;2023-02-04T05:50:54;47.88;;;27.70;;
52266;SDS011;38223;50.940;4.034;2023-02-04T05:53:25;40.58;;;24.52;;
52266;SDS011;38223;50.940;4.034;2023-02-04T05:55:57;42.65;;;25.12;;
52266;SDS011;38223;50.940;4.034;2023-02-04T05:58:28;48.78;;;25.85;;
52266;SDS011;38223;50.940;4.034;2023-02-04T06:01:04;36.95;;;24.00;;
52266;SDS011;38223;50.940;4.034;2023-02-04T06:03:34;41.75;;;25.25;;
52266;SDS011;38223;50.940;4.034;2023-02-04T06:06:08;43.02;;;25.85;;
52266;SDS011;38223;50.940;4.034;2023-02-04T06:08:37;31.02;;;22.48;;
52266;SDS011;38223;50.940;4.034;2023-02-04T06:11:11;36.58;;;21.77;;
52266;SDS011;38223;50.940;4.034;2023-02-04T06:13:43;39.83;;;23.10;;
52266;SDS011;38223;50.940;4.034;2023-02-04T06:16:10;35.17;;;21.77;;
52266;SDS011;38223;50.940;4.034;2023-02-04T06:18:45;37.67;;;23.12;;
52266;SDS011;38223;50.940;4.034;2023-02-04T06:21:18;38.42;;;23.50;;
52266;SDS011;38223;50.940;4.034;2023-02-04T06:23:52;39.23;;;23.65;;
52266;SDS011;38223;50.940;4.034;2023-02-04T06:26:23;39.55;;;23.05;;
52266;SDS011;38223;50.940;4.034;2023-02-04T06:28:54;35.92;;;23.57;;
52266;SDS011;38223;50.940;4.034;2023-02-04T06:31:25;30.30;;;22.25;;
52266;SDS011;38223;50.940;4.034;2023-02-04T06:33:57;36.63;;;22.87;;
52266;SDS011;38223;50.940;4.034;2023-02-04T06:36:32;40.85;;;24.30;;
52266;SDS011;38223;50.940;4.034;2023-02-04T06:39:06;40.85;;;23.75;;
52266;SDS011;38223;50.940;4.034;2023-02-04T06:41:41;42.38;;;23.95;;
52266;SDS011;38223;50.940;4.034;2023-02-04T06:44:12;41.45;;;24.43;;
52266;SDS011;38223;50.940;4.034;2023-02-04T06:46:41;41.40;;;25.55;;
52266;SDS011;38223;50.940;4.034;2023-02-04T06:49:14;50.52;;;26.23;;
52266;SDS011;38223;50.940;4.034;2023-02-04T06:51:45;44.10;;;25.10;;
52266;SDS011;38223;50.940;4.034;2023-02-04T06:54:15;42.48;;;23.55;;
52266;SDS011;38223;50.940;4.034;2023-02-04T06:56:49;42.85;;;24.18;;
52266;SDS011;38223;50.940;4.034;2023-02-04T06:59:19;43.73;;;24.32;;
52266;SDS011;38223;50.940;4.034;2023-02-04T07:01:50;39.20;;;24.60;;
52266;SDS011;38223;50.940;4.034;2023-02-04T07:04:23;40.15;;;24.75;;
52266;SDS011;38223;50.940;4.034;2023-02-04T07:06:58;42.98;;;24.40;;
52266;SDS011;38223;50.940;4.034;2023-02-04T07:09:33;36.88;;;22.55;;
52266;SDS011;38223;50.940;4.034;2023-02-04T07:12:05;41.75;;;24.12;;
52266;SDS011;38223;50.940;4.034;2023-02-04T07:14:37;38.85;;;24.45;;
52266;SDS011;38223;50.940;4.034;2023-02-04T07:17:09;43.23;;;24.75;;
52266;SDS011;38223;50.940;4.034;2023-02-04T07:19:42;36.40;;;24.57;;
52266;SDS011;38223;50.940;4.034;2023-02-04T07:22:10;40.03;;;24.77;;
52266;SDS011;38223;50.940;4.034;2023-02-04T07:24:43;39.38;;;25.00;;
52266;SDS011;38223;50.940;4.034;2023-02-04T07:27:19;40.15;;;26.20;;
52266;SDS011;38223;50.940;4.034;2023-02-04T07:29:51;41.42;;;24.67;;
52266;SDS011;38223;50.940;4.034;2023-02-04T07:32:25;46.53;;;26.17;;
52266;SDS011;38223;50.940;4.034;2023-02-04T07:34:58;45.15;;;26.15;;
52266;SDS011;38223;50.940;4.034;2023-02-04T07:37:30;41.20;;;26.05;;
52266;SDS011;38223;50.940;4.034;2023-02-04T07:40:03;46.30;;;26.90;;
52266;SDS011;38223;50.940;4.034;2023-02-04T07:42:37;40.70;;;26.02;;
52266;SDS011;38223;50.940;4.034;2023-02-04T07:45:09;44.40;;;27.02;;
52266;SDS011;38223;50.940;4.034;2023-02-04T07:47:45;46.02;;;27.45;;
52266;SDS011;38223;50.940;4.034;2023-02-04T07:50:16;44.58;;;25.90;;
52266;SDS011;38223;50.940;4.034;2023-02-04T07:52:50;45.50;;;26.42;;
52266;SDS011;38223;50.940;4.034;2023-02-04T07:55:24;41.80;;;26.45;;
52266;SDS011;38223;50.940;4.034;2023-02-04T07:57:56;41.02;;;26.10;;
52266;SDS011;38223;50.940;4.034;2023-02-04T08:00:31;45.00;;;25.05;;
52266;SDS011;38223;50.940;4.034;2023-02-04T08:03:04;41.10;;;25.05;;
52266;SDS011;38223;50.940;4.034;2023-02-04T08:05:38;41.83;;;24.37;;
52266;SDS011;38223;50.940;4.034;2023-02-04T08:08:07;37.17;;;23.98;;
52266;SDS011;38223;50.940;4.034;2023-02-04T08:10:41;37.58;;;23.65;;
52266;SDS011;38223;50.940;4.034;2023-02-04T08:13:11;33.92;;;23.57;;
52266;SDS011;38223;50.940;4.034;2023-02-04T08:15:43;36.58;;;23.52;;
52266;SDS011;38223;50.940;4.034;2023-02-04T08:18:13;31.15;;;23.32;;
52266;SDS011;38223;50.940;4.034;2023-02-04T08:20:42;36.48;;;23.62;;
52266;SDS011;38223;50.940;4.034;2023-02-04T08:23:13;31.60;;;21.70;;
52266;SDS011;38223;50.940;4.034;2023-02-04T08:25:43;35.17;;;22.60;;
52266;SDS011;38223;50.940;4.034;2023-02-04T08:28:17;39.42;;;24.10;;
52266;SDS011;38223;50.940;4.034;2023-02-04T08:30:49;32.67;;;22.87;;
52266;SDS011;38223;50.940;4.034;2023-02-04T08:33:22;35.05;;;23.25;;
52266;SDS011;38223;50.940;4.034;2023-02-04T08:35:56;37.45;;;23.95;;
52266;SDS011;38223;50.940;4.034;2023-02-04T08:38:28;43.90;;;24.77;;
52266;SDS011;38223;50.940;4.034;2023-02-04T08:41:03;39.50;;;25.20;;
52266;SDS011;38223;50.940;4.034;2023-02-04T08:43:32;40.88;;;24.92;;
52266;SDS011;38223;50.940;4.034;2023-02-04T08:46:06;45.05;;;26.15;;
52266;SDS011;38223;50.940;4.034;2023-02-04T08:48:35;39.13;;;24.40;;
52266;SDS011;38223;50.940;4.034;2023-02-04T08:51:07;39.45;;;25.37;;
52266;SDS011;38223;50.940;4.034;2023-02-04T08:53:37;38.48;;;23.95;;
52266;SDS011;38223;50.940;4.034;2023-02-04T08:56:07;38.70;;;24.57;;
52266;SDS011;38223;50.940;4.034;2023-02-04T08:58:38;45.38;;;24.60;;
52266;SDS011;38223;50.940;4.034;2023-02-04T09:01:08;41.85;;;24.98;;
52266;SDS011;38223;50.940;4.034;2023-02-04T09:03:36;39.80;;;24.95;;
52266;SDS011;38223;50.940;4.034;2023-02-04T09:06:07;40.73;;;25.72;;
52266;SDS011;38223;50.940;4.034;2023-02-04T09:08:38;37.70;;;24.90;;
52266;SDS011;38223;50.940;4.034;2023-02-04T09:11:10;34.78;;;22.82;;
52266;SDS011;38223;50.940;4.034;2023-02-04T09:13:43;34.48;;;22.07;;
52266;SDS011;38223;50.940;4.034;2023-02-04T09:16:19;38.40;;;23.87;;
52266;SDS011;38223;50.940;4.034;2023-02-04T09:18:50;36.53;;;23.42;;
52266;SDS011;38223;50.940;4.034;2023-02-04T09:21:18;39.18;;;22.42;;
52266;SDS011;38223;50.940;4.034;2023-02-04T09:23:50;32.73;;;21.62;;
52266;SDS011;38223;50.940;4.034;2023-02-04T09:26:22;35.85;;;21.55;;
52266;SDS011;38223;50.940;4.034;2023-02-04T09:28:54;30.23;;;21.35;;
52266;SDS011;38223;50.940;4.034;2023-02-04T09:31:25;31.35;;;21.33;;
52266;SDS011;38223;50.940;4.034;2023-02-04T09:33:57;36.83;;;22.87;;
52266;SDS011;38223;50.940;4.034;2023-02-04T09:36:29;35.08;;;22.70;;
52266;SDS011;38223;50.940;4.034;2023-02-04T09:39:04;36.93;;;22.98;;
52266;SDS011;38223;50.940;4.034;2023-02-04T09:41:41;31.02;;;21.90;;
52266;SDS011;38223;50.940;4.034;2023-02-04T09:44:16;29.35;;;21.52;;
52266;SDS011;38223;50.940;4.034;2023-02-04T09:46:55;35.23;;;23.38;;
52266;SDS011;38223;50.940;4.034;2023-02-04T09:49:29;36.05;;;23.20;;
52266;SDS011;38223;50.940;4.034;2023-02-04T09:52:01;33.67;;;22.62;;
52266;SDS011;38223;50.940;4.034;2023-02-04T09:54:35;35.90;;;23.30;;
52266;SDS011;38223;50.940;4.034;2023-02-04T09:57:09;34.03;;;22.55;;
52266;SDS011;38223;50.940;4.034;2023-02-04T09:59:38;37.55;;;23.57;;
52266;SDS011;38223;50.940;4.034;2023-02-04T10:02:22;34.85;;;24.25;;
52266;SDS011;38223;50.940;4.034;2023-02-04T10:04:58;32.42;;;23.00;;
52266;SDS011;38223;50.940;4.034;2023-02-04T10:07:28;42.53;;;25.90;;
52266;SDS011;38223;50.940;4.034;2023-02-04T10:09:59;39.27;;;26.17;;
52266;SDS011;38223;50.940;4.034;2023-02-04T10:12:27;39.45;;;26.57;;
52266;SDS011;38223;50.940;4.034;2023-02-04T10:14:58;34.33;;;25.23;;
52266;SDS011;38223;50.940;4.034;2023-02-04T10:17:35;39.13;;;27.82;;
52266;SDS011;38223;50.940;4.034;2023-02-04T10:20:14;42.27;;;25.70;;
52266;SDS011;38223;50.940;4.034;2023-02-04T10:22:50;49.10;;;28.20;;
52266;SDS011;38223;50.940;4.034;2023-02-04T10:25:29;49.60;;;28.55;;
52266;SDS011;38223;50.940;4.034;2023-02-04T10:28:06;49.93;;;29.80;;
52266;SDS011;38223;50.940;4.034;2023-02-04T10:30:39;41.98;;;27.05;;
52266;SDS011;38223;50.940;4.034;2023-02-04T10:33:20;46.23;;;27.22;;
52266;SDS011;38223;50.940;4.034;2023-02-04T10:35:55;41.00;;;26.87;;
52266;SDS011;38223;50.940;4.034;2023-02-04T10:38:30;48.95;;;28.20;;
52266;SDS011;38223;50.940;4.034;2023-02-04T10:41:04;45.98;;;27.05;;
52266;SDS011;38223;50.940;4.034;2023-02-04T10:44:11;34.33;;;25.27;;
52266;SDS011;38223;50.940;4.034;2023-02-04T10:46:34;41.33;;;25.57;;
52266;SDS011;38223;50.940;4.034;2023-02-04T10:49:03;36.25;;;25.40;;
52266;SDS011;38223;50.940;4.034;2023-02-04T10:51:33;43.68;;;26.15;;
52266;SDS011;38223;50.940;4.034;2023-02-04T10:54:06;44.03;;;25.80;;
52266;SDS011;38223;50.940;4.034;2023-02-04T10:59:22;37.45;;;24.43;;
52266;SDS011;38223;50.940;4.034;2023-02-04T11:01:55;41.18;;;26.90;;
52266;SDS011;38223;50.940;4.034;2023-02-04T11:04:29;50.15;;;28.38;;
52266;SDS011;38223;50.940;4.034;2023-02-04T11:07:06;52.55;;;29.42;;
52266;SDS011;38223;50.940;4.034;2023-02-04T11:09:35;41.63;;;28.45;;
52266;SDS011;38223;50.940;4.034;2023-02-04T11:12:17;48.65;;;30.95;;
52266;SDS011;38223;50.940;4.034;2023-02-04T11:14:54;50.17;;;28.95;;
52266;SDS011;38223;50.940;4.034;2023-02-04T11:17:32;43.38;;;28.27;;
52266;SDS011;38223;50.940;4.034;2023-02-04T11:20:12;35.92;;;27.27;;
52266;SDS011;38223;50.940;4.034;2023-02-04T11:22:45;43.08;;;27.48;;
52266;SDS011;38223;50.940;4.034;2023-02-04T11:25:33;41.65;;;27.60;;
52266;SDS011;38223;50.940;4.034;2023-02-04T11:28:24;44.03;;;28.07;;
52266;SDS011;38223;50.940;4.034;2023-02-04T11:30:58;34.98;;;24.98;;
52266;SDS011;38223;50.940;4.034;2023-02-04T11:33:40;31.50;;;23.32;;
52266;SDS011;38223;50.940;4.034;2023-02-04T11:36:10;36.03;;;23.95;;
52266;SDS011;38223;50.940;4.034;2023-02-04T11:38:46;43.78;;;26.12;;
52266;SDS011;38223;50.940;4.034;2023-02-04T11:41:17;39.50;;;26.73;;
52266;SDS011;38223;50.940;4.034;2023-02-04T11:43:52;43.83;;;28.75;;
52266;SDS011;38223;50.940;4.034;2023-02-04T11:46:25;40.78;;;29.00;;
52266;SDS011;38223;50.940;4.034;2023-02-04T11:48:58;36.13;;;27.82;;
52266;SDS011;38223;50.940;4.034;2023-02-04T11:51:35;49.03;;;30.30;;
52266;SDS011;38223;50.940;4.034;2023-02-04T11:54:14;39.73;;;30.25;;
52266;SDS011;38223;50.940;4.034;2023-02-04T11:56:46;41.73;;;30.72;;
52266;SDS011;38223;50.940;4.034;2023-02-04T11:59:19;44.53;;;29.52;;
52266;SDS011;38223;50.940;4.034;2023-02-04T12:02:13;40.60;;;28.47;;
52266;SDS011;38223;50.940;4.034;2023-02-04T12:04:53;39.95;;;25.92;;
52266;SDS011;38223;50.940;4.034;2023-02-04T12:07:27;37.88;;;25.57;;
52266;SDS011;38223;50.940;4.034;2023-02-04T12:10:18;33.83;;;23.38;;
52266;SDS011;38223;50.940;4.034;2023-02-04T12:12:49;30.92;;;19.92;;
52266;SDS011;38223;50.940;4.034;2023-02-04T12:15:21;28.70;;;21.27;;
52266;SDS011;38223;50.940;4.034;2023-02-04T12:20:37;32.40;;;23.02;;
52266;SDS011;38223;50.940;4.034;2023-02-04T12:23:12;31.55;;;22.20;;
52266;SDS011;38223;50.940;4.034;2023-02-04T12:25:45;34.90;;;23.07;;
52266;SDS011;38223;50.940;4.034;2023-02-04T12:28:17;35.00;;;23.30;;
52266;SDS011;38223;50.940;4.034;2023-02-04T12:30:52;30.00;;;21.10;;
52266;SDS011;38223;50.940;4.034;2023-02-04T12:33:26;33.75;;;24.32;;
52266;SDS011;38223;50.940;4.034;2023-02-04T12:38:27;31.55;;;23.70;;
52266;SDS011;38223;50.940;4.034;2023-02-04T12:40:59;33.67;;;25.55;;
52266;SDS011;38223;50.940;4.034;2023-02-04T12:43:34;31.80;;;24.65;;
52266;SDS011;38223;50.940;4.034;2023-02-04T12:46:10;37.38;;;26.07;;
52266;SDS011;38223;50.940;4.034;2023-02-04T12:48:41;29.35;;;21.45;;
52266;SDS011;38223;50.940;4.034;2023-02-04T12:51:12;35.17;;;23.95;;
52266;SDS011;38223;50.940;4.034;2023-02-04T12:53:45;26.68;;;21.27;;
52266;SDS011;38223;50.940;4.034;2023-02-04T12:56:17;27.67;;;20.50;;
52266;SDS011;38223;50.940;4.034;2023-02-04T12:58:50;31.37;;;22.30;;
52266;SDS011;38223;50.940;4.034;2023-02-04T13:01:23;31.85;;;23.47;;
52266;SDS011;38223;50.940;4.034;2023-02-04T13:03:52;33.58;;;20.75;;
52266;SDS011;38223;50.940;4.034;2023-02-04T13:08:51;27.95;;;18.15;;
52266;SDS011;38223;50.940;4.034;2023-02-04T13:11:25;19.50;;;16.73;;
52266;SDS011;38223;50.940;4.034;2023-02-04T13:13:58;22.17;;;17.12;;
52266;SDS011;38223;50.940;4.034;2023-02-04T13:16:28;27.48;;;18.23;;
52266;SDS011;38223;50.940;4.034;2023-02-04T13:19:01;19.87;;;16.35;;
52266;SDS011;38223;50.940;4.034;2023-02-04T13:21:32;18.52;;;15.58;;
52266;SDS011;38223;50.940;4.034;2023-02-04T13:24:05;22.13;;;16.75;;
52266;SDS011;38223;50.940;4.034;2023-02-04T13:26:41;23.50;;;16.50;;
52266;SDS011;38223;50.940;4.034;2023-02-04T13:29:11;20.08;;;16.60;;
52266;SDS011;38223;50.940;4.034;2023-02-04T13:31:45;24.30;;;17.07;;
52266;SDS011;38223;50.940;4.034;2023-02-04T13:34:20;21.95;;;15.90;;
52266;SDS011;38223;50.940;4.034;2023-02-04T13:36:51;22.07;;;15.23;;
52266;SDS011;38223;50.940;4.034;2023-02-04T13:39:22;24.00;;;15.75;;
52266;SDS011;38223;50.940;4.034;2023-02-04T13:41:54;19.80;;;14.23;;
52266;SDS011;38223;50.940;4.034;2023-02-04T13:44:31;20.52;;;14.00;;
52266;SDS011;38223;50.940;4.034;2023-02-04T13:47:02;19.02;;;14.05;;
52266;SDS011;38223;50.940;4.034;2023-02-04T13:49:37;15.18;;;13.58;;
52266;SDS011;38223;50.940;4.034;2023-02-04T13:52:09;15.58;;;13.18;;
52266;SDS011;38223;50.940;4.034;2023-02-04T13:54:44;18.67;;;13.40;;
52266;SDS011;38223;50.940;4.034;2023-02-04T13:57:14;17.30;;;12.65;;
52266;SDS011;38223;50.940;4.034;2023-02-04T13:59:44;18.02;;;12.18;;
52266;SDS011;38223;50.940;4.034;2023-02-04T14:02:16;18.10;;;11.55;;
52266;SDS011;38223;50.940;4.034;2023-02-04T14:04:49;12.80;;;10.15;;
52266;SDS011;38223;50.940;4.034;2023-02-04T14:07:22;15.20;;;10.08;;
52266;SDS011;38223;50.940;4.034;2023-02-04T14:09:54;15.78;;;9.98;;
52266;SDS011;38223;50.940;4.034;2023-02-04T14:12:25;14.55;;;10.00;;
52266;SDS011;38223;50.940;4.034;2023-02-04T14:14:55;12.70;;;9.97;;
52266;SDS011;38223;50.940;4.034;2023-02-04T14:17:26;10.23;;;9.23;;
52266;SDS011;38223;50.940;4.034;2023-02-04T14:20:01;12.35;;;9.38;;
52266;SDS011;38223;50.940;4.034;2023-02-04T14:22:32;16.62;;;9.65;;
52266;SDS011;38223;50.940;4.034;2023-02-04T14:25:04;13.13;;;8.95;;
52266;SDS011;38223;50.940;4.034;2023-02-04T14:27:38;17.80;;;9.60;;
52266;SDS011;38223;50.940;4.034;2023-02-04T14:30:14;9.93;;;8.70;;
52266;SDS011;38223;50.940;4.034;2023-02-04T14:32:43;20.17;;;10.25;;
52266;SDS011;38223;50.940;4.034;2023-02-04T14:35:16;11.33;;;9.28;;
52266;SDS011;38223;50.940;4.034;2023-02-04T14:37:50;17.40;;;10.75;;
52266;SDS011;38223;50.940;4.034;2023-02-04T14:40:23;18.23;;;10.65;;
52266;SDS011;38223;50.940;4.034;2023-02-04T14:42:52;14.45;;;10.13;;
52266;SDS011;38223;50.940;4.034;2023-02-04T14:45:24;18.20;;;9.75;;
52266;SDS011;38223;50.940;4.034;2023-02-04T14:47:57;16.75;;;10.23;;
52266;SDS011;38223;50.940;4.034;2023-02-04T14:50:27;15.93;;;9.73;;
52266;SDS011;38223;50.940;4.034;2023-02-04T14:53:00;15.03;;;9.83;;
52266;SDS011;38223;50.940;4.034;2023-02-04T14:55:51;12.85;;;9.68;;
52266;SDS011;38223;50.940;4.034;2023-02-04T14:58:23;11.38;;;8.58;;
52266;SDS011;38223;50.940;4.034;2023-02-04T15:01:14;13.98;;;9.15;;
52266;SDS011;38223;50.940;4.034;2023-02-04T15:03:44;16.17;;;8.88;;
52266;SDS011;38223;50.940;4.034;2023-02-04T15:06:15;12.88;;;8.88;;
52266;SDS011;38223;50.940;4.034;2023-02-04T15:08:47;14.40;;;9.20;;
52266;SDS011;38223;50.940;4.034;2023-02-04T15:11:17;13.60;;;9.30;;